createdAt,value
2023-02-03T00:00:00.770Z,102596.03
2023-02-03T00:02:27.609Z,102582.28
2023-02-03T00:04:54.454Z,102590.19
2023-02-03T00:07:21.315Z,102583.75
2023-02-03T00:09:48.239Z,102583.22
2023-02-03T00:12:16.260Z,102582.41
2023-02-03T00:14:42.948Z,102594.78
2023-02-03T00:17:10.845Z,102596.19
2023-02-03T00:19:37.886Z,102598.75
2023-02-03T00:22:04.534Z,102588.94
2023-02-03T00:24:31.275Z,102595.38
2023-02-03T00:26:57.983Z,102601.59
2023-02-03T00:29:26.226Z,102602.19
2023-02-03T00:31:54.302Z,102597.66
2023-02-03T00:34:21.809Z,102601.03
2023-02-03T00:36:48.990Z,102590.94
2023-02-03T00:39:18.168Z,102586.97
2023-02-03T00:41:45.048Z,102589.78
2023-02-03T00:44:12.689Z,102592.34
2023-02-03T00:46:39.898Z,102579.41
2023-02-03T00:49:06.693Z,102570.13
2023-02-03T00:51:34.820Z,102561.69
2023-02-03T00:54:02.062Z,102558.88
2023-02-03T00:56:28.774Z,102555.22
2023-02-03T00:58:55.552Z,102545.97
2023-02-03T01:01:23.395Z,102546.78
2023-02-03T01:03:50.828Z,102558.03
2023-02-03T01:06:19.326Z,102561.97
2023-02-03T01:08:48.970Z,102560.53
2023-02-03T01:11:17.406Z,102568.13
2023-02-03T01:13:44.428Z,102568.41
2023-02-03T01:16:14.893Z,102567.84
2023-02-03T01:18:42.347Z,102571.75
2023-02-03T01:21:11.854Z,102561.06
2023-02-03T01:23:39.111Z,102566.94
2023-02-03T01:26:06.848Z,102566.38
2023-02-03T01:28:33.881Z,102563.84
2023-02-03T01:31:03.754Z,102556.53
2023-02-03T01:33:30.553Z,102558.22
2023-02-03T01:36:01.359Z,102563.00
2023-02-03T01:38:28.057Z,102568.06
2023-02-03T01:40:55.284Z,102555.13
2023-02-03T01:43:26.054Z,102561.00
2023-02-03T01:45:52.879Z,102561.84
2023-02-03T01:48:19.978Z,102571.38
2023-02-03T01:50:47.219Z,102568.56
2023-02-03T01:53:15.277Z,102561.00
2023-02-03T01:55:45.223Z,102564.63
2023-02-03T01:58:16.688Z,102557.59
2023-02-03T02:00:44.064Z,102564.91
2023-02-03T02:03:14.048Z,102565.44
2023-02-03T02:05:43.895Z,102560.41
2023-02-03T02:08:13.881Z,102560.94
2023-02-03T02:10:40.802Z,102554.16
2023-02-03T02:13:07.893Z,102539.00
2023-02-03T02:15:44.503Z,102539.84
2023-02-03T02:18:15.368Z,102526.63
2023-02-03T02:20:45.457Z,102528.28
2023-02-03T02:23:15.353Z,102515.94
2023-02-03T02:25:45.844Z,102511.41
2023-02-03T02:28:15.621Z,102515.31
2023-02-03T02:30:49.754Z,102518.97
2023-02-03T02:33:27.977Z,102527.94
2023-02-03T02:35:55.106Z,102539.19
2023-02-03T02:38:26.079Z,102547.00
2023-02-03T02:40:56.976Z,102564.72
2023-02-03T02:43:28.495Z,102558.78
2023-02-03T02:46:04.231Z,102564.41
2023-02-03T02:48:34.083Z,102570.03
2023-02-03T02:51:03.768Z,102574.47
2023-02-03T02:53:34.179Z,102575.84
2023-02-03T02:56:04.925Z,102569.13
2023-02-03T02:58:32.385Z,102563.81
2023-02-03T03:00:59.421Z,102567.97
2023-02-03T03:03:26.218Z,102568.53
2023-02-03T03:05:55.852Z,102569.38
2023-02-03T03:08:29.269Z,102571.84
2023-02-03T03:10:57.338Z,102569.03
2023-02-03T03:13:28.593Z,102583.31
2023-02-03T03:15:57.256Z,102581.31
2023-02-03T03:18:26.974Z,102586.94
2023-02-03T03:20:55.986Z,102588.03
2023-02-03T03:23:26.264Z,102578.78
2023-02-03T03:25:57.992Z,102569.50
2023-02-03T03:28:28.544Z,102570.59
2023-02-03T03:30:55.478Z,102568.34
2023-02-03T03:33:23.268Z,102569.44
2023-02-03T03:35:51.365Z,102574.25
2023-02-03T03:38:21.403Z,102568.59
2023-02-03T03:40:52.182Z,102569.19
2023-02-03T03:43:22.057Z,102568.59
2023-02-03T03:45:51.777Z,102563.78
2023-02-03T03:48:20.786Z,102563.22
2023-02-03T03:50:49.640Z,102567.97
2023-02-03T03:53:17.969Z,102564.31
2023-02-03T03:55:47.513Z,102556.16
2023-02-03T03:58:17.117Z,102557.56
2023-02-03T04:00:44.614Z,102563.75
2023-02-03T04:03:15.987Z,102553.66
2023-02-03T04:05:42.858Z,102558.09
2023-02-03T04:08:09.777Z,102557.25
2023-02-03T04:10:37.904Z,102577.41
2023-02-03T04:13:05.311Z,102570.69
2023-02-03T04:15:32.483Z,102572.06
2023-02-03T04:18:04.024Z,102578.25
2023-02-03T04:20:31.694Z,102554.09
2023-02-03T04:22:59.222Z,102558.00
2023-02-03T04:25:26.407Z,102565.31
2023-02-03T04:27:53.222Z,102569.78
2023-02-03T04:30:20.317Z,102553.50
2023-02-03T04:32:47.184Z,102562.16
2023-02-03T04:35:14.868Z,102564.97
2023-02-03T04:37:42.178Z,102565.25
2023-02-03T04:40:09.657Z,102567.75
2023-02-03T04:42:39.082Z,102583.72
2023-02-03T04:45:06.244Z,102590.69
2023-02-03T04:47:33.070Z,102589.84
2023-02-03T04:50:00.844Z,102589.28
2023-02-03T04:52:27.827Z,102596.59
2023-02-03T04:54:55.715Z,102602.44
2023-02-03T04:57:22.927Z,102592.00
2023-02-03T04:59:49.653Z,102587.25
2023-02-03T05:02:17.155Z,102594.81
2023-02-03T05:04:44.908Z,102609.09
2023-02-03T05:07:11.712Z,102624.56
2023-02-03T05:09:39.034Z,102626.22
2023-02-03T05:12:06.824Z,102612.44
2023-02-03T05:14:33.575Z,102625.84
2023-02-03T05:17:01.483Z,102608.19
2023-02-03T05:19:28.928Z,102616.03
2023-02-03T05:21:55.614Z,102603.09
2023-02-03T05:24:22.334Z,102608.72
2023-02-03T05:26:49.200Z,102614.00
2023-02-03T05:29:15.924Z,102623.25
2023-02-03T05:31:42.664Z,102632.78
2023-02-03T05:34:09.933Z,102639.25
2023-02-03T05:36:37.009Z,102632.19
2023-02-03T05:39:03.881Z,102633.03
2023-02-03T05:41:34.965Z,102631.38
2023-02-03T05:44:01.913Z,102637.78
2023-02-03T05:46:29.166Z,102648.50
2023-02-03T05:48:56.040Z,102644.00
2023-02-03T05:51:22.787Z,102644.00
2023-02-03T05:53:49.480Z,102644.63
2023-02-03T05:56:17.321Z,102645.56
2023-02-03T05:58:44.181Z,102642.81
2023-02-03T06:01:12.109Z,102642.03
2023-02-03T06:03:39.121Z,102646.84
2023-02-03T06:06:06.456Z,102642.16
2023-02-03T06:08:34.224Z,102638.56
2023-02-03T06:11:01.051Z,102639.47
2023-02-03T06:13:28.251Z,102644.00
2023-02-03T06:15:55.307Z,102648.56
2023-02-03T06:18:22.880Z,102643.28
2023-02-03T06:20:50.722Z,102653.69
2023-02-03T06:23:19.350Z,102656.56
2023-02-03T06:25:48.131Z,102665.91
2023-02-03T06:28:15.755Z,102674.41
2023-02-03T06:30:43.042Z,102666.88
2023-02-03T06:33:10.004Z,102665.78
2023-02-03T06:35:36.936Z,102661.34
2023-02-03T06:38:03.683Z,102656.88
2023-02-03T06:40:31.175Z,102654.13
2023-02-03T06:42:57.981Z,102656.97
2023-02-03T06:45:25.267Z,102660.09
2023-02-03T06:47:52.145Z,102661.22
2023-02-03T06:50:19.268Z,102664.38
2023-02-03T06:52:46.981Z,102665.53
2023-02-03T06:55:14.756Z,102673.41
2023-02-03T06:57:45.080Z,102674.00
2023-02-03T07:00:15.523Z,102676.28
2023-02-03T07:02:44.693Z,102684.16
2023-02-03T07:05:11.443Z,102684.16
2023-02-03T07:07:39.959Z,102682.78
2023-02-03T07:10:07.071Z,102690.66
2023-02-03T07:12:33.908Z,102695.72
2023-02-03T07:15:00.741Z,102702.22
2023-02-03T07:17:27.655Z,102704.50
2023-02-03T07:19:55.625Z,102698.88
2023-02-03T07:22:22.997Z,102700.53
2023-02-03T07:24:50.108Z,102707.88
2023-02-03T07:27:17.076Z,102701.41
2023-02-03T07:29:43.828Z,102707.31
2023-02-03T07:32:11.064Z,102705.03
2023-02-03T07:34:38.034Z,102701.66
2023-02-03T07:37:05.199Z,102702.50
2023-02-03T07:39:33.255Z,102696.53
2023-02-03T07:42:00.153Z,102700.16
2023-02-03T07:44:27.279Z,102707.19
2023-02-03T07:46:54.650Z,102709.72
2023-02-03T07:49:24.133Z,102709.41
2023-02-03T07:51:52.475Z,102716.41
2023-02-03T07:54:19.453Z,102715.34
2023-02-03T07:56:47.008Z,102724.28
2023-02-03T07:59:13.771Z,102733.31
2023-02-03T08:01:41.647Z,102726.84
2023-02-03T08:04:08.959Z,102731.34
2023-02-03T08:06:36.021Z,102718.72
2023-02-03T08:09:03.252Z,102714.81
2023-02-03T08:11:32.740Z,102705.25
2023-02-03T08:13:59.561Z,102705.81
2023-02-03T08:16:27.735Z,102714.00
2023-02-03T08:18:54.592Z,102712.59
2023-02-03T08:21:23.670Z,102716.00
2023-02-03T08:23:50.490Z,102710.13
2023-02-03T08:26:17.973Z,102721.66
2023-02-03T08:28:48.836Z,102723.63
2023-02-03T08:31:16.053Z,102726.25
2023-02-03T08:33:44.008Z,102739.69
2023-02-03T08:36:11.877Z,102738.09
2023-02-03T08:38:39.383Z,102743.22
2023-02-03T08:41:09.543Z,102734.25
2023-02-03T08:43:37.003Z,102742.69
2023-02-03T08:46:05.187Z,102744.38
2023-02-03T08:48:32.205Z,102749.13
2023-02-03T08:50:59.006Z,102753.66
2023-02-03T08:53:26.068Z,102766.59
2023-02-03T08:55:52.971Z,102757.91
2023-02-03T08:58:20.283Z,102763.22
2023-02-03T09:00:50.611Z,102765.78
2023-02-03T09:03:17.675Z,102764.94
2023-02-03T09:05:45.535Z,102754.53
2023-02-03T09:08:12.687Z,102760.41
2023-02-03T09:10:39.499Z,102765.75
2023-02-03T09:13:06.334Z,102768.56
2023-02-03T09:15:33.639Z,102771.91
2023-02-03T09:18:00.639Z,102777.63
2023-02-03T09:20:28.409Z,102784.69
2023-02-03T09:22:59.660Z,102783.75
2023-02-03T09:25:26.524Z,102787.66
2023-02-03T09:27:55.549Z,102790.47
2023-02-03T09:30:22.427Z,102796.66
2023-02-03T09:32:54.403Z,102794.09
2023-02-03T09:35:21.382Z,102791.03
2023-02-03T09:37:49.089Z,102789.63
2023-02-03T09:40:19.278Z,102798.00
2023-02-03T09:42:47.082Z,102791.56
2023-02-03T09:45:17.438Z,102795.38
2023-02-03T09:47:45.529Z,102803.19
2023-02-03T09:50:14.585Z,102817.75
2023-02-03T09:52:44.379Z,102821.78
2023-02-03T09:55:14.635Z,102832.66
2023-02-03T09:57:45.158Z,102843.63
2023-02-03T10:00:16.114Z,102841.09
2023-02-03T10:02:49.971Z,102853.47
2023-02-03T10:05:19.847Z,102852.84
2023-02-03T10:07:51.048Z,102850.09
2023-02-03T10:10:21.023Z,102869.84
2023-02-03T10:12:53.954Z,102874.34
2023-02-03T10:15:24.163Z,102878.84
2023-02-03T10:17:54.574Z,102881.38
2023-02-03T10:20:24.339Z,102891.00
2023-02-03T10:22:53.484Z,102889.34
2023-02-03T10:25:25.269Z,102890.50
2023-02-03T10:27:55.808Z,102889.16
2023-02-03T10:30:24.979Z,102893.69
2023-02-03T10:32:54.825Z,102888.44
2023-02-03T10:35:25.137Z,102883.13
2023-02-03T10:37:56.236Z,102892.97
2023-02-03T10:40:25.419Z,102892.47
2023-02-03T10:42:56.520Z,102904.88
2023-02-03T10:45:25.797Z,102899.31
2023-02-03T10:47:56.180Z,102909.47
2023-02-03T10:50:24.795Z,102902.19
2023-02-03T10:52:51.840Z,102906.44
2023-02-03T10:55:22.087Z,102900.03
2023-02-03T10:57:49.518Z,102899.47
2023-02-03T11:00:22.199Z,102916.94
2023-02-03T11:03:36.193Z,102915.56
2023-02-03T11:06:06.050Z,102907.72
2023-02-03T11:08:33.643Z,102908.56
2023-02-03T11:11:04.358Z,102909.97
2023-02-03T11:13:31.214Z,102910.56
2023-02-03T11:16:03.320Z,102901.84
2023-02-03T11:18:33.583Z,102911.97
2023-02-03T11:21:01.964Z,102905.25
2023-02-03T11:23:29.257Z,102908.34
2023-02-03T11:25:56.162Z,102914.84
2023-02-03T11:28:29.677Z,102920.22
2023-02-03T11:30:57.976Z,102904.19
2023-02-03T11:33:32.317Z,102902.47
2023-02-03T11:36:00.259Z,102898.56
2023-02-03T11:38:29.657Z,102899.97
2023-02-03T11:41:00.155Z,102906.69
2023-02-03T11:43:30.357Z,102906.44
2023-02-03T11:46:02.054Z,102911.81
2023-02-03T11:48:32.248Z,102915.44
2023-02-03T11:50:59.755Z,102915.75
2023-02-03T11:53:27.977Z,102917.09
2023-02-03T11:55:58.088Z,102918.50
2023-02-03T11:58:29.382Z,102912.03
2023-02-03T12:00:59.664Z,102900.78
2023-02-03T12:03:28.053Z,102900.50
2023-02-03T12:05:56.212Z,102907.25
2023-02-03T12:08:23.692Z,102897.91
2023-02-03T12:10:54.066Z,102903.59
2023-02-03T12:13:23.926Z,102903.00
2023-02-03T12:15:54.068Z,102909.41
2023-02-03T12:18:24.038Z,102905.44
2023-02-03T12:21:00.401Z,102907.72
2023-02-03T12:23:30.498Z,102916.41
2023-02-03T12:26:00.443Z,102918.91
2023-02-03T12:28:33.806Z,102915.25
2023-02-03T12:31:11.983Z,102892.44
2023-02-03T12:33:44.750Z,102903.69
2023-02-03T12:36:15.542Z,102903.44
2023-02-03T12:38:45.799Z,102898.72
2023-02-03T12:41:15.263Z,102898.47
2023-02-03T12:43:49.394Z,102895.66
2023-02-03T12:46:20.058Z,102897.91
2023-02-03T12:48:54.188Z,102905.81
2023-02-03T12:51:29.653Z,102905.84
2023-02-03T12:53:59.538Z,102910.09
2023-02-03T12:56:30.490Z,102900.56
2023-02-03T12:59:02.940Z,102911.00
2023-02-03T13:01:33.279Z,102920.25
2023-02-03T13:04:06.709Z,102908.75
2023-02-03T13:06:36.694Z,102917.78
2023-02-03T13:09:05.135Z,102918.63
2023-02-03T13:11:35.684Z,102916.72
2023-02-03T13:14:10.269Z,102918.16
2023-02-03T13:16:43.491Z,102910.28
2023-02-03T13:19:16.078Z,102903.28
2023-02-03T13:21:43.123Z,102896.25
2023-02-03T13:24:11.369Z,102910.91
2023-02-03T13:26:48.724Z,102907.53
2023-02-03T13:29:24.379Z,102910.66
2023-02-03T13:31:54.437Z,102906.97
2023-02-03T13:34:25.109Z,102908.69
2023-02-03T13:36:55.019Z,102898.28
2023-02-03T13:39:23.213Z,102896.88
2023-02-03T13:41:54.346Z,102889.53
2023-02-03T13:44:24.517Z,102893.72
2023-02-03T13:46:52.672Z,102889.75
2023-02-03T13:49:24.500Z,102892.56
2023-02-03T13:51:53.005Z,102893.97
2023-02-03T13:54:23.174Z,102896.53
2023-02-03T13:56:53.998Z,102895.69
2023-02-03T13:59:24.924Z,102891.16
2023-02-03T14:01:52.123Z,102893.38
2023-02-03T14:04:27.918Z,102903.50
2023-02-03T14:06:57.176Z,102891.31
2023-02-03T14:09:25.223Z,102888.78
2023-02-03T14:12:15.472Z,102899.47
2023-02-03T14:14:44.673Z,102908.19
2023-02-03T14:17:14.923Z,102908.44
2023-02-03T14:19:45.878Z,102911.53
2023-02-03T14:22:17.850Z,102905.34
2023-02-03T14:24:47.464Z,102905.34
2023-02-03T14:27:17.529Z,102912.34
2023-02-03T14:29:45.188Z,102902.19
2023-02-03T14:32:13.194Z,102903.00
2023-02-03T14:34:42.577Z,102907.22
2023-02-03T14:37:12.999Z,102911.97
2023-02-03T14:39:41.198Z,102914.50
2023-02-03T14:42:11.098Z,102916.16
2023-02-03T14:44:39.513Z,102919.81
2023-02-03T14:47:09.400Z,102916.44
2023-02-03T14:49:45.516Z,102912.75
2023-02-03T14:52:15.793Z,102913.84
2023-02-03T14:54:46.269Z,102926.50
2023-02-03T14:57:17.430Z,102923.38
2023-02-03T14:59:47.994Z,102935.44
2023-02-03T15:02:19.692Z,102932.00
2023-02-03T15:04:48.250Z,102932.88
2023-02-03T15:07:19.661Z,102928.91
2023-02-03T15:09:49.366Z,102932.56
2023-02-03T15:12:19.488Z,102924.06
2023-02-03T15:14:48.605Z,102922.66
2023-02-03T15:17:18.778Z,102929.09
2023-02-03T15:19:45.600Z,102935.88
2023-02-03T15:22:16.599Z,102927.94
2023-02-03T15:24:43.853Z,102921.75
2023-02-03T15:27:22.378Z,102926.25
2023-02-03T15:29:49.334Z,102930.44
2023-02-03T15:32:19.420Z,102926.22
2023-02-03T15:34:50.356Z,102940.56
2023-02-03T15:37:19.545Z,102941.50
2023-02-03T15:39:54.074Z,102952.13
2023-02-03T15:42:24.279Z,102949.91
2023-02-03T15:44:55.542Z,102953.78
2023-02-03T15:47:27.555Z,102952.88
2023-02-03T15:49:58.018Z,102950.84
2023-02-03T15:52:27.162Z,102952.56
2023-02-03T15:55:05.552Z,102955.38
2023-02-03T15:57:34.830Z,102958.72
2023-02-03T16:00:05.331Z,102960.38
2023-02-03T16:02:35.214Z,102967.72
2023-02-03T16:05:05.280Z,102970.53
2023-02-03T16:07:32.266Z,102968.31
2023-02-03T16:10:00.083Z,102970.59
2023-02-03T16:12:31.767Z,102967.84
2023-02-03T16:14:59.921Z,102970.13
2023-02-03T16:17:29.982Z,102979.47
2023-02-03T16:19:59.928Z,102976.09
2023-02-03T16:22:28.850Z,102978.41
2023-02-03T16:24:56.640Z,102986.56
2023-02-03T16:27:26.908Z,102989.97
2023-02-03T16:29:58.219Z,102987.75
2023-02-03T16:32:28.884Z,103000.44
2023-02-03T16:34:59.231Z,102996.50
2023-02-03T16:37:31.185Z,103005.50
2023-02-03T16:40:02.224Z,103010.88
2023-02-03T16:42:39.995Z,103014.28
2023-02-03T16:45:17.537Z,103012.91
2023-02-03T16:47:48.843Z,103020.50
2023-02-03T16:50:36.474Z,103025.00
2023-02-03T16:53:05.874Z,103025.88
2023-02-03T16:55:32.656Z,103034.88
2023-02-03T16:57:59.540Z,103027.28
2023-02-03T17:00:26.436Z,103024.75
2023-02-03T17:02:53.438Z,103022.50
2023-02-03T17:05:20.536Z,103014.31
2023-02-03T17:07:48.484Z,103027.28
2023-02-03T17:10:17.740Z,103027.28
2023-02-03T17:12:44.582Z,103029.25
2023-02-03T17:15:13.882Z,103029.53
2023-02-03T17:17:41.075Z,103027.56
2023-02-03T17:20:08.078Z,103034.31
2023-02-03T17:22:35.243Z,103032.06
2023-02-03T17:25:04.788Z,103033.44
2023-02-03T17:27:33.976Z,103032.84
2023-02-03T17:30:01.596Z,103037.91
2023-02-03T17:32:29.264Z,103046.34
2023-02-03T17:34:56.205Z,103040.41
2023-02-03T17:37:23.386Z,103048.84
2023-02-03T17:55:42.053Z,103073.19
2023-02-03T17:58:09.178Z,103077.94
2023-02-03T18:00:36.259Z,103070.06
2023-02-03T18:03:03.051Z,103081.81
2023-02-03T18:05:32.197Z,103079.00
2023-02-03T18:08:03.341Z,103070.56
2023-02-03T18:10:36.509Z,103073.03
2023-02-03T18:13:03.816Z,103079.78
2023-02-03T18:15:30.754Z,103091.03
2023-02-03T18:17:58.288Z,103093.50
2023-02-03T18:20:25.166Z,103100.25
2023-02-03T18:22:52.125Z,103096.56
2023-02-03T18:25:20.257Z,103102.72
2023-02-03T18:27:49.316Z,103094.91
2023-02-03T18:30:18.541Z,103097.34
2023-02-03T18:32:47.464Z,103102.41
2023-02-03T18:35:16.978Z,103105.47
2023-02-03T18:37:44.064Z,103105.47
2023-02-03T18:40:12.021Z,103113.34
2023-02-03T18:42:38.827Z,103113.59
2023-02-03T18:45:06.784Z,103119.69
2023-02-03T18:47:34.249Z,103119.94
2023-02-03T18:50:01.785Z,103127.19
2023-02-03T18:52:28.559Z,103118.25
2023-02-03T18:54:55.389Z,103117.06
2023-02-03T18:57:23.300Z,103114.78
2023-02-03T18:59:52.249Z,103126.28
2023-02-03T19:02:19.378Z,103129.34
2023-02-03T19:04:46.169Z,103130.19
2023-02-03T19:07:13.210Z,103124.25
2023-02-03T19:09:40.920Z,103125.34
2023-02-03T19:12:08.260Z,103123.66
2023-02-03T19:14:35.686Z,103128.69
2023-02-03T19:17:04.733Z,103123.59
2023-02-03T19:19:31.587Z,103122.97
2023-02-03T19:21:59.858Z,103125.78
2023-02-03T19:24:27.324Z,103125.69
2023-02-03T19:26:56.108Z,103122.66
2023-02-03T19:29:23.250Z,103127.16
2023-02-03T19:31:50.346Z,103122.41
2023-02-03T19:34:18.501Z,103124.34
2023-02-03T19:36:48.621Z,103129.69
2023-02-03T19:39:15.861Z,103129.19
2023-02-03T19:41:42.778Z,103134.91
2023-02-03T19:44:10.202Z,103130.19
2023-02-03T19:46:37.629Z,103127.97
2023-02-03T19:49:07.986Z,103131.38
2023-02-03T19:51:34.923Z,103132.56
2023-02-03T19:54:02.790Z,103127.78
2023-02-03T19:56:31.715Z,103126.44
2023-02-03T19:58:59.384Z,103143.66
2023-02-03T20:01:27.459Z,103140.59
2023-02-03T20:03:54.378Z,103143.13
2023-02-03T20:06:21.283Z,103147.41
2023-02-03T20:08:50.407Z,103148.25
2023-02-03T20:11:18.433Z,103150.78
2023-02-03T20:13:45.677Z,103155.31
2023-02-03T20:16:13.297Z,103151.13
2023-02-03T20:18:40.316Z,103152.81
2023-02-03T20:21:08.305Z,103159.03
2023-02-03T20:23:35.327Z,103157.34
2023-02-03T20:26:02.127Z,103161.84
2023-02-03T20:28:29.224Z,103149.50
2023-02-03T20:30:58.006Z,103151.22
2023-02-03T20:33:27.752Z,103154.03
2023-02-03T20:35:55.015Z,103147.25
2023-02-03T20:38:22.821Z,103152.63
2023-02-03T20:40:51.180Z,103153.75
2023-02-03T20:43:19.316Z,103147.88
2023-02-03T20:45:48.005Z,103158.78
2023-02-03T20:48:14.862Z,103166.09
2023-02-03T20:50:45.301Z,103168.09
2023-02-03T20:53:14.825Z,103178.72
2023-02-03T20:55:41.919Z,103173.09
2023-02-03T20:58:11.653Z,103179.81
2023-02-03T21:00:40.571Z,103183.75
2023-02-03T21:03:12.888Z,103187.94
2023-02-03T21:05:42.020Z,103191.59
2023-02-03T21:08:11.842Z,103189.91
2023-02-03T21:13:57.930Z,103195.19
2023-02-03T21:16:27.940Z,103187.84
2023-02-03T21:18:57.151Z,103194.00
2023-02-03T21:21:27.698Z,103198.78
2023-02-03T21:23:54.981Z,103194.75
2023-02-03T21:26:22.208Z,103209.66
2023-02-03T21:28:50.353Z,103213.31
2023-02-03T21:31:20.556Z,103217.22
2023-02-03T21:33:47.332Z,103211.00
2023-02-03T21:36:16.074Z,103216.63
2023-02-03T21:38:43.537Z,103224.72
2023-02-03T21:41:14.965Z,103226.69
2023-02-03T21:43:41.925Z,103227.78
2023-02-03T21:46:12.006Z,103222.44
2023-02-03T21:48:40.224Z,103227.22
2023-02-03T21:51:18.013Z,103226.59
2023-02-03T21:53:49.508Z,103227.13
2023-02-03T21:56:18.301Z,103227.38
2023-02-03T21:58:47.429Z,103240.31
2023-02-03T22:01:17.206Z,103238.03
2023-02-03T22:03:47.820Z,103228.13
2023-02-03T22:06:14.959Z,103231.22
2023-02-03T22:08:42.958Z,103232.91
2023-02-03T22:11:10.200Z,103231.22
2023-02-03T22:13:37.049Z,103234.53
2023-02-03T22:16:07.049Z,103246.38
2023-02-03T22:18:33.899Z,103242.72
2023-02-03T22:21:01.264Z,103241.59
2023-02-03T22:23:28.056Z,103246.94
2023-02-03T22:25:55.885Z,103246.47
2023-02-03T22:28:22.842Z,103251.56
2023-02-03T22:30:50.827Z,103243.22
2023-02-03T22:33:22.175Z,103259.31
2023-02-03T22:35:49.359Z,103261.34
2023-02-03T22:38:16.043Z,103263.91
2023-02-03T22:40:46.404Z,103266.25
2023-02-03T22:43:13.101Z,103261.19
2023-02-03T22:45:39.962Z,103269.16
2023-02-03T22:48:06.946Z,103269.47
2023-02-03T22:50:36.115Z,103274.56
2023-02-03T22:53:04.635Z,103282.50
2023-02-03T22:55:31.695Z,103281.13
2023-02-03T22:57:59.545Z,103276.38
2023-02-03T23:00:26.321Z,103287.09
2023-02-03T23:02:53.371Z,103290.50
2023-02-03T23:05:20.437Z,103289.13
2023-02-03T23:07:47.685Z,103288.03
2023-02-03T23:10:17.637Z,103286.94
2023-02-03T23:12:44.622Z,103284.69
2023-02-03T23:15:11.734Z,103297.94
2023-02-03T23:17:39.571Z,103285.28
2023-02-03T23:20:07.628Z,103286.72
2023-02-03T23:22:34.358Z,103291.53
2023-02-03T23:25:01.196Z,103288.72
2023-02-03T23:27:28.398Z,103292.63
2023-02-03T23:29:55.484Z,103296.03
2023-02-03T23:32:22.460Z,103291.53
2023-02-03T23:34:52.367Z,103299.97
2023-02-03T23:37:19.645Z,103310.94
2023-02-03T23:39:46.401Z,103305.59
2023-02-03T23:42:13.126Z,103306.69
2023-02-03T23:44:39.820Z,103303.28
2023-02-03T23:47:06.600Z,103306.69
2023-02-03T23:49:33.979Z,103310.84
2023-02-03T23:52:00.982Z,103309.19
2023-02-03T23:54:27.876Z,103313.34
2023-02-03T23:56:54.791Z,103323.75
2023-02-03T23:59:22.012Z,103314.19
